sensor_id;sensor_type;location;lat;lon;timestamp;P1;durP1;ratioP1;P2;durP2;ratioP2
40248;SDS011;25969;49.970;11.062;2022-07-22T04:22:29;12.02;;;8.73;;
40248;SDS011;25969;49.970;11.062;2022-07-22T04:32:30;13.33;;;8.43;;
40248;SDS011;25969;49.970;11.062;2022-07-22T04:42:31;13.50;;;8.43;;
40248;SDS011;25969;49.970;11.062;2022-07-22T04:52:32;10.10;;;7.63;;
40248;SDS011;25969;49.970;11.062;2022-07-22T05:02:33;13.23;;;8.53;;
40248;SDS011;25969;49.970;11.062;2022-07-22T05:12:34;14.87;;;10.00;;
40248;SDS011;25969;49.970;11.062;2022-07-22T05:22:35;13.35;;;9.88;;
40248;SDS011;25969;49.970;11.062;2022-07-22T05:32:39;14.40;;;9.60;;
40248;SDS011;25969;49.970;11.062;2022-07-22T05:42:41;17.75;;;9.43;;
40248;SDS011;25969;49.970;11.062;2022-07-22T06:02:44;12.65;;;9.50;;
40248;SDS011;25969;49.970;11.062;2022-07-22T06:12:51;12.38;;;8.85;;
40248;SDS011;25969;49.970;11.062;2022-07-22T06:22:52;11.50;;;9.40;;
40248;SDS011;25969;49.970;11.062;2022-07-22T06:32:53;13.38;;;8.85;;
40248;SDS011;25969;49.970;11.062;2022-07-22T06:42:54;10.45;;;8.38;;
40248;SDS011;25969;49.970;11.062;2022-07-22T06:53:24;13.25;;;7.75;;
40248;SDS011;25969;49.970;11.062;2022-07-22T07:13:29;9.13;;;7.50;;
40248;SDS011;25969;49.970;11.062;2022-07-22T07:23:30;10.27;;;7.88;;
40248;SDS011;25969;49.970;11.062;2022-07-22T07:33:31;8.73;;;7.13;;
40248;SDS011;25969;49.970;11.062;2022-07-22T07:43:32;12.77;;;7.25;;
40248;SDS011;25969;49.970;11.062;2022-07-22T07:53:34;8.05;;;6.57;;
40248;SDS011;25969;49.970;11.062;2022-07-22T08:03:36;9.98;;;6.75;;
40248;SDS011;25969;49.970;11.062;2022-07-22T08:13:37;8.27;;;6.22;;
40248;SDS011;25969;49.970;11.062;2022-07-22T08:23:49;6.43;;;5.55;;
40248;SDS011;25969;49.970;11.062;2022-07-22T08:33:51;10.57;;;5.97;;
40248;SDS011;25969;49.970;11.062;2022-07-22T08:43:52;6.25;;;5.30;;
40248;SDS011;25969;49.970;11.062;2022-07-22T08:53:53;8.02;;;5.68;;
40248;SDS011;25969;49.970;11.062;2022-07-22T09:03:56;7.25;;;4.70;;
40248;SDS011;25969;49.970;11.062;2022-07-22T09:14:01;6.43;;;4.28;;
40248;SDS011;25969;49.970;11.062;2022-07-22T09:24:08;8.57;;;4.85;;
40248;SDS011;25969;49.970;11.062;2022-07-22T09:34:26;7.57;;;4.80;;
40248;SDS011;25969;49.970;11.062;2022-07-22T09:44:28;7.97;;;5.05;;
40248;SDS011;25969;49.970;11.062;2022-07-22T09:54:32;9.18;;;4.47;;
40248;SDS011;25969;49.970;11.062;2022-07-22T10:04:33;9.95;;;4.75;;
40248;SDS011;25969;49.970;11.062;2022-07-22T10:14:37;5.43;;;4.20;;
40248;SDS011;25969;49.970;11.062;2022-07-22T10:24:53;5.90;;;4.25;;
40248;SDS011;25969;49.970;11.062;2022-07-22T10:45:01;6.22;;;4.22;;
40248;SDS011;25969;49.970;11.062;2022-07-22T11:05:27;6.35;;;4.60;;
40248;SDS011;25969;49.970;11.062;2022-07-22T11:15:30;8.82;;;4.57;;
40248;SDS011;25969;49.970;11.062;2022-07-22T11:25:31;8.35;;;5.30;;
40248;SDS011;25969;49.970;11.062;2022-07-22T11:35:32;9.60;;;4.43;;
40248;SDS011;25969;49.970;11.062;2022-07-22T11:45:32;5.63;;;4.55;;
40248;SDS011;25969;49.970;11.062;2022-07-22T11:55:33;5.88;;;4.20;;
40248;SDS011;25969;49.970;11.062;2022-07-22T12:05:34;6.70;;;5.18;;
40248;SDS011;25969;49.970;11.062;2022-07-22T12:15:35;4.95;;;4.43;;
40248;SDS011;25969;49.970;11.062;2022-07-22T12:25:48;7.40;;;4.23;;
40248;SDS011;25969;49.970;11.062;2022-07-22T12:36:07;8.88;;;4.43;;
40248;SDS011;25969;49.970;11.062;2022-07-22T12:46:08;6.32;;;4.80;;
40248;SDS011;25969;49.970;11.062;2022-07-22T12:56:09;10.37;;;4.83;;
40248;SDS011;25969;49.970;11.062;2022-07-22T13:06:11;9.55;;;4.95;;
40248;SDS011;25969;49.970;11.062;2022-07-22T13:16:11;5.10;;;4.60;;
40248;SDS011;25969;49.970;11.062;2022-07-22T13:26:12;5.63;;;4.68;;
40248;SDS011;25969;49.970;11.062;2022-07-22T13:36:13;6.38;;;4.28;;
40248;SDS011;25969;49.970;11.062;2022-07-22T13:46:13;5.07;;;3.95;;
40248;SDS011;25969;49.970;11.062;2022-07-22T13:56:14;5.88;;;4.60;;
40248;SDS011;25969;49.970;11.062;2022-07-22T14:06:15;5.22;;;4.43;;
40248;SDS011;25969;49.970;11.062;2022-07-22T14:16:16;10.47;;;4.23;;
40248;SDS011;25969;49.970;11.062;2022-07-22T14:26:35;8.23;;;4.25;;
40248;SDS011;25969;49.970;11.062;2022-07-22T14:36:37;6.63;;;4.10;;
40248;SDS011;25969;49.970;11.062;2022-07-22T14:46:37;7.18;;;4.53;;
40248;SDS011;25969;49.970;11.062;2022-07-22T14:56:38;8.07;;;4.63;;
40248;SDS011;25969;49.970;11.062;2022-07-22T15:06:40;5.63;;;4.40;;
40248;SDS011;25969;49.970;11.062;2022-07-22T15:16:40;7.90;;;4.15;;
40248;SDS011;25969;49.970;11.062;2022-07-22T15:26:41;5.77;;;4.63;;
40248;SDS011;25969;49.970;11.062;2022-07-22T15:36:42;6.15;;;4.28;;
40248;SDS011;25969;49.970;11.062;2022-07-22T15:46:43;7.68;;;3.97;;
40248;SDS011;25969;49.970;11.062;2022-07-22T15:56:43;4.88;;;3.70;;
40248;SDS011;25969;49.970;11.062;2022-07-22T16:06:44;8.30;;;4.25;;
40248;SDS011;25969;49.970;11.062;2022-07-22T16:16:45;5.95;;;4.28;;
40248;SDS011;25969;49.970;11.062;2022-07-22T16:26:46;4.30;;;3.90;;
40248;SDS011;25969;49.970;11.062;2022-07-22T16:36:46;5.70;;;4.30;;
40248;SDS011;25969;49.970;11.062;2022-07-22T16:46:47;5.28;;;3.95;;
40248;SDS011;25969;49.970;11.062;2022-07-22T16:56:48;7.43;;;4.53;;
40248;SDS011;25969;49.970;11.062;2022-07-22T17:06:49;6.90;;;4.45;;
40248;SDS011;25969;49.970;11.062;2022-07-22T17:16:50;9.25;;;4.88;;
40248;SDS011;25969;49.970;11.062;2022-07-22T17:26:51;5.73;;;4.23;;
40248;SDS011;25969;49.970;11.062;2022-07-22T17:36:52;7.07;;;4.32;;
40248;SDS011;25969;49.970;11.062;2022-07-22T17:46:52;7.28;;;4.47;;
40248;SDS011;25969;49.970;11.062;2022-07-22T17:56:53;7.68;;;4.40;;
40248;SDS011;25969;49.970;11.062;2022-07-22T18:06:54;6.78;;;4.80;;
40248;SDS011;25969;49.970;11.062;2022-07-22T18:16:56;10.70;;;5.15;;
40248;SDS011;25969;49.970;11.062;2022-07-22T18:26:57;7.80;;;4.25;;
40248;SDS011;25969;49.970;11.062;2022-07-22T18:36:58;7.70;;;4.53;;
40248;SDS011;25969;49.970;11.062;2022-07-22T18:46:58;8.67;;;5.07;;
40248;SDS011;25969;49.970;11.062;2022-07-22T18:56:59;6.03;;;4.60;;
40248;SDS011;25969;49.970;11.062;2022-07-22T19:07:00;7.05;;;5.10;;
40248;SDS011;25969;49.970;11.062;2022-07-22T19:17:01;11.23;;;4.97;;
40248;SDS011;25969;49.970;11.062;2022-07-22T19:27:01;9.77;;;4.80;;
40248;SDS011;25969;49.970;11.062;2022-07-22T19:37:04;9.10;;;5.20;;
40248;SDS011;25969;49.970;11.062;2022-07-22T19:47:05;8.43;;;4.80;;
40248;SDS011;25969;49.970;11.062;2022-07-22T19:57:06;8.25;;;4.93;;
40248;SDS011;25969;49.970;11.062;2022-07-22T20:07:07;12.35;;;5.25;;
40248;SDS011;25969;49.970;11.062;2022-07-22T20:17:08;8.48;;;5.20;;
40248;SDS011;25969;49.970;11.062;2022-07-22T20:27:09;7.60;;;4.40;;
40248;SDS011;25969;49.970;11.062;2022-07-22T20:37:10;7.45;;;4.53;;
40248;SDS011;25969;49.970;11.062;2022-07-22T20:47:10;6.20;;;4.50;;
40248;SDS011;25969;49.970;11.062;2022-07-22T20:57:11;7.88;;;4.63;;
40248;SDS011;25969;49.970;11.062;2022-07-22T21:07:12;7.13;;;4.63;;
40248;SDS011;25969;49.970;11.062;2022-07-22T21:17:12;6.32;;;4.30;;
40248;SDS011;25969;49.970;11.062;2022-07-22T21:27:13;7.87;;;5.30;;
40248;SDS011;25969;49.970;11.062;2022-07-22T21:47:15;7.77;;;4.10;;
40248;SDS011;25969;49.970;11.062;2022-07-22T21:57:15;4.88;;;4.38;;
